sensor_id;sensor_type;location;lat;lon;timestamp;P1;durP1;ratioP1;P2;durP2;ratioP2
21122;SDS011;10719;48.130;11.630;2023-09-08T00:02:06;14.65;;;6.07;;
21122;SDS011;10719;48.130;11.630;2023-09-08T00:04:31;13.73;;;6.35;;
21122;SDS011;10719;48.130;11.630;2023-09-08T00:07:00;15.75;;;6.80;;
21122;SDS011;10719;48.130;11.630;2023-09-08T00:09:26;13.85;;;5.95;;
21122;SDS011;10719;48.130;11.630;2023-09-08T00:11:51;14.60;;;6.18;;
21122;SDS011;10719;48.130;11.630;2023-09-08T00:14:19;13.85;;;5.85;;
21122;SDS011;10719;48.130;11.630;2023-09-08T00:16:44;13.98;;;5.38;;
21122;SDS011;10719;48.130;11.630;2023-09-08T00:19:10;12.38;;;5.25;;
21122;SDS011;10719;48.130;11.630;2023-09-08T00:21:36;11.45;;;5.10;;
21122;SDS011;10719;48.130;11.630;2023-09-08T00:24:03;13.90;;;5.70;;
21122;SDS011;10719;48.130;11.630;2023-09-08T00:26:32;13.07;;;5.43;;
21122;SDS011;10719;48.130;11.630;2023-09-08T00:28:57;14.13;;;5.78;;
21122;SDS011;10719;48.130;11.630;2023-09-08T00:31:23;12.73;;;5.57;;
21122;SDS011;10719;48.130;11.630;2023-09-08T00:33:49;12.65;;;5.63;;
21122;SDS011;10719;48.130;11.630;2023-09-08T00:36:14;13.93;;;5.57;;
21122;SDS011;10719;48.130;11.630;2023-09-08T00:38:40;13.25;;;6.25;;
21122;SDS011;10719;48.130;11.630;2023-09-08T00:41:06;12.23;;;5.63;;
21122;SDS011;10719;48.130;11.630;2023-09-08T00:43:32;14.35;;;5.82;;
21122;SDS011;10719;48.130;11.630;2023-09-08T00:45:58;15.82;;;5.85;;
21122;SDS011;10719;48.130;11.630;2023-09-08T00:48:25;12.82;;;5.80;;
21122;SDS011;10719;48.130;11.630;2023-09-08T00:50:51;13.10;;;5.43;;
21122;SDS011;10719;48.130;11.630;2023-09-08T00:53:17;12.93;;;5.82;;
21122;SDS011;10719;48.130;11.630;2023-09-08T00:55:43;12.88;;;5.80;;
21122;SDS011;10719;48.130;11.630;2023-09-08T00:58:10;15.05;;;5.82;;
21122;SDS011;10719;48.130;11.630;2023-09-08T01:00:36;13.13;;;5.53;;
21122;SDS011;10719;48.130;11.630;2023-09-08T01:03:02;10.57;;;5.07;;
21122;SDS011;10719;48.130;11.630;2023-09-08T01:05:28;12.10;;;5.25;;
21122;SDS011;10719;48.130;11.630;2023-09-08T01:07:54;13.15;;;5.55;;
21122;SDS011;10719;48.130;11.630;2023-09-08T01:10:20;13.27;;;5.28;;
21122;SDS011;10719;48.130;11.630;2023-09-08T01:12:46;18.25;;;6.13;;
21122;SDS011;10719;48.130;11.630;2023-09-08T01:15:12;12.43;;;5.75;;
21122;SDS011;10719;48.130;11.630;2023-09-08T01:17:37;16.88;;;6.45;;
21122;SDS011;10719;48.130;11.630;2023-09-08T01:20:14;13.18;;;5.68;;
21122;SDS011;10719;48.130;11.630;2023-09-08T01:25:43;13.13;;;5.68;;
21122;SDS011;10719;48.130;11.630;2023-09-08T01:28:22;15.18;;;6.05;;
21122;SDS011;10719;48.130;11.630;2023-09-08T01:30:48;13.90;;;5.30;;
21122;SDS011;10719;48.130;11.630;2023-09-08T01:33:15;13.32;;;5.43;;
21122;SDS011;10719;48.130;11.630;2023-09-08T01:35:41;11.38;;;5.07;;
21122;SDS011;10719;48.130;11.630;2023-09-08T01:38:07;14.25;;;6.13;;
21122;SDS011;10719;48.130;11.630;2023-09-08T01:40:33;14.80;;;6.03;;
21122;SDS011;10719;48.130;11.630;2023-09-08T01:42:59;12.00;;;5.32;;
21122;SDS011;10719;48.130;11.630;2023-09-08T01:45:25;13.77;;;6.00;;
21122;SDS011;10719;48.130;11.630;2023-09-08T01:47:51;13.23;;;5.30;;
21122;SDS011;10719;48.130;11.630;2023-09-08T01:50:16;12.98;;;5.05;;
21122;SDS011;10719;48.130;11.630;2023-09-08T01:52:46;11.20;;;4.90;;
21122;SDS011;10719;48.130;11.630;2023-09-08T01:55:12;13.93;;;5.80;;
21122;SDS011;10719;48.130;11.630;2023-09-08T01:57:38;14.48;;;6.43;;
21122;SDS011;10719;48.130;11.630;2023-09-08T02:00:03;16.08;;;5.80;;
21122;SDS011;10719;48.130;11.630;2023-09-08T02:02:30;11.30;;;5.43;;
21122;SDS011;10719;48.130;11.630;2023-09-08T02:04:55;15.93;;;5.78;;
21122;SDS011;10719;48.130;11.630;2023-09-08T02:07:21;12.40;;;5.60;;
21122;SDS011;10719;48.130;11.630;2023-09-08T02:09:47;12.27;;;5.82;;
21122;SDS011;10719;48.130;11.630;2023-09-08T02:12:12;13.40;;;5.55;;
21122;SDS011;10719;48.130;11.630;2023-09-08T02:14:38;11.95;;;5.68;;
21122;SDS011;10719;48.130;11.630;2023-09-08T02:17:04;11.65;;;5.10;;
21122;SDS011;10719;48.130;11.630;2023-09-08T02:19:31;11.68;;;4.85;;
21122;SDS011;10719;48.130;11.630;2023-09-08T02:21:56;12.85;;;5.88;;
21122;SDS011;10719;48.130;11.630;2023-09-08T02:24:22;12.60;;;5.75;;
21122;SDS011;10719;48.130;11.630;2023-09-08T02:26:48;16.17;;;6.18;;
21122;SDS011;10719;48.130;11.630;2023-09-08T02:29:14;12.48;;;5.43;;
21122;SDS011;10719;48.130;11.630;2023-09-08T02:31:39;11.43;;;5.25;;
21122;SDS011;10719;48.130;11.630;2023-09-08T02:34:05;12.63;;;5.63;;
21122;SDS011;10719;48.130;11.630;2023-09-08T02:36:31;13.07;;;5.10;;
21122;SDS011;10719;48.130;11.630;2023-09-08T02:38:56;15.40;;;5.82;;
21122;SDS011;10719;48.130;11.630;2023-09-08T02:41:22;12.80;;;5.88;;
21122;SDS011;10719;48.130;11.630;2023-09-08T02:43:48;10.93;;;4.65;;
21122;SDS011;10719;48.130;11.630;2023-09-08T02:46:14;11.85;;;5.38;;
21122;SDS011;10719;48.130;11.630;2023-09-08T02:48:40;11.30;;;5.53;;
21122;SDS011;10719;48.130;11.630;2023-09-08T02:51:06;13.75;;;5.65;;
21122;SDS011;10719;48.130;11.630;2023-09-08T02:53:32;15.68;;;6.00;;
21122;SDS011;10719;48.130;11.630;2023-09-08T02:55:58;11.10;;;5.13;;
21122;SDS011;10719;48.130;11.630;2023-09-08T02:58:25;13.68;;;5.78;;
21122;SDS011;10719;48.130;11.630;2023-09-08T03:00:51;11.60;;;5.45;;
21122;SDS011;10719;48.130;11.630;2023-09-08T03:03:18;15.02;;;6.30;;
21122;SDS011;10719;48.130;11.630;2023-09-08T03:05:44;12.63;;;5.35;;
21122;SDS011;10719;48.130;11.630;2023-09-08T03:08:10;13.68;;;5.20;;
21122;SDS011;10719;48.130;11.630;2023-09-08T03:10:35;13.02;;;5.45;;
21122;SDS011;10719;48.130;11.630;2023-09-08T03:13:01;13.88;;;5.50;;
21122;SDS011;10719;48.130;11.630;2023-09-08T03:15:27;15.90;;;6.30;;
21122;SDS011;10719;48.130;11.630;2023-09-08T03:17:56;12.73;;;5.50;;
21122;SDS011;10719;48.130;11.630;2023-09-08T03:20:23;11.50;;;5.22;;
21122;SDS011;10719;48.130;11.630;2023-09-08T03:22:51;11.63;;;5.28;;
21122;SDS011;10719;48.130;11.630;2023-09-08T03:25:19;13.27;;;5.65;;
21122;SDS011;10719;48.130;11.630;2023-09-08T03:27:45;12.60;;;5.55;;
21122;SDS011;10719;48.130;11.630;2023-09-08T03:30:11;13.07;;;5.43;;
21122;SDS011;10719;48.130;11.630;2023-09-08T03:32:37;14.07;;;5.70;;
21122;SDS011;10719;48.130;11.630;2023-09-08T03:35:03;13.45;;;6.25;;
21122;SDS011;10719;48.130;11.630;2023-09-08T03:37:32;13.13;;;5.55;;
21122;SDS011;10719;48.130;11.630;2023-09-08T03:39:58;13.35;;;5.60;;
21122;SDS011;10719;48.130;11.630;2023-09-08T03:42:24;13.07;;;5.53;;
21122;SDS011;10719;48.130;11.630;2023-09-08T03:44:49;10.63;;;5.32;;
21122;SDS011;10719;48.130;11.630;2023-09-08T03:47:15;11.35;;;4.90;;
21122;SDS011;10719;48.130;11.630;2023-09-08T03:49:40;12.90;;;5.53;;
21122;SDS011;10719;48.130;11.630;2023-09-08T03:52:06;13.05;;;5.80;;
21122;SDS011;10719;48.130;11.630;2023-09-08T03:54:32;12.55;;;5.70;;
21122;SDS011;10719;48.130;11.630;2023-09-08T03:56:57;12.63;;;5.57;;
21122;SDS011;10719;48.130;11.630;2023-09-08T03:59:23;11.25;;;5.05;;
21122;SDS011;10719;48.130;11.630;2023-09-08T04:01:49;12.10;;;5.20;;
21122;SDS011;10719;48.130;11.630;2023-09-08T04:04:14;12.45;;;5.07;;
21122;SDS011;10719;48.130;11.630;2023-09-08T04:06:40;11.40;;;4.90;;
21122;SDS011;10719;48.130;11.630;2023-09-08T04:09:06;11.70;;;4.65;;
21122;SDS011;10719;48.130;11.630;2023-09-08T04:11:32;14.98;;;5.57;;
21122;SDS011;10719;48.130;11.630;2023-09-08T04:13:58;12.88;;;5.10;;
21122;SDS011;10719;48.130;11.630;2023-09-08T04:16:23;12.77;;;5.60;;
21122;SDS011;10719;48.130;11.630;2023-09-08T04:18:51;12.48;;;5.63;;
21122;SDS011;10719;48.130;11.630;2023-09-08T04:21:16;13.18;;;5.90;;
21122;SDS011;10719;48.130;11.630;2023-09-08T04:23:42;12.13;;;5.22;;
21122;SDS011;10719;48.130;11.630;2023-09-08T04:26:07;12.27;;;5.18;;
21122;SDS011;10719;48.130;11.630;2023-09-08T04:28:33;13.55;;;5.85;;
21122;SDS011;10719;48.130;11.630;2023-09-08T04:30:58;11.32;;;4.95;;
21122;SDS011;10719;48.130;11.630;2023-09-08T04:33:24;13.25;;;5.22;;
21122;SDS011;10719;48.130;11.630;2023-09-08T04:35:50;11.52;;;5.22;;
21122;SDS011;10719;48.130;11.630;2023-09-08T04:38:15;12.52;;;5.20;;
21122;SDS011;10719;48.130;11.630;2023-09-08T04:40:41;11.07;;;5.03;;
21122;SDS011;10719;48.130;11.630;2023-09-08T04:43:09;11.95;;;5.35;;
21122;SDS011;10719;48.130;11.630;2023-09-08T04:45:34;12.30;;;5.15;;
21122;SDS011;10719;48.130;11.630;2023-09-08T04:48:00;10.85;;;5.32;;
21122;SDS011;10719;48.130;11.630;2023-09-08T04:50:25;12.68;;;5.22;;
21122;SDS011;10719;48.130;11.630;2023-09-08T04:52:51;11.10;;;4.97;;
21122;SDS011;10719;48.130;11.630;2023-09-08T04:55:17;13.75;;;5.45;;
21122;SDS011;10719;48.130;11.630;2023-09-08T04:57:44;11.60;;;4.95;;
21122;SDS011;10719;48.130;11.630;2023-09-08T05:00:10;11.90;;;5.63;;
21122;SDS011;10719;48.130;11.630;2023-09-08T05:02:36;12.75;;;6.00;;
21122;SDS011;10719;48.130;11.630;2023-09-08T05:05:02;12.18;;;4.88;;
21122;SDS011;10719;48.130;11.630;2023-09-08T05:07:28;11.00;;;5.18;;
21122;SDS011;10719;48.130;11.630;2023-09-08T05:09:54;11.25;;;5.13;;
21122;SDS011;10719;48.130;11.630;2023-09-08T05:12:19;13.45;;;5.93;;
21122;SDS011;10719;48.130;11.630;2023-09-08T05:14:45;11.82;;;5.28;;
21122;SDS011;10719;48.130;11.630;2023-09-08T05:17:10;13.73;;;5.85;;
21122;SDS011;10719;48.130;11.630;2023-09-08T05:19:36;11.98;;;5.65;;
21122;SDS011;10719;48.130;11.630;2023-09-08T05:22:05;11.50;;;5.13;;
21122;SDS011;10719;48.130;11.630;2023-09-08T05:24:32;12.13;;;5.28;;
21122;SDS011;10719;48.130;11.630;2023-09-08T05:26:57;13.05;;;5.93;;
21122;SDS011;10719;48.130;11.630;2023-09-08T05:29:23;13.05;;;5.72;;
21122;SDS011;10719;48.130;11.630;2023-09-08T05:31:49;13.32;;;6.03;;
21122;SDS011;10719;48.130;11.630;2023-09-08T05:34:14;11.82;;;5.53;;
21122;SDS011;10719;48.130;11.630;2023-09-08T05:36:40;12.18;;;5.57;;
21122;SDS011;10719;48.130;11.630;2023-09-08T05:39:07;11.43;;;5.20;;
21122;SDS011;10719;48.130;11.630;2023-09-08T05:41:33;15.95;;;6.38;;
21122;SDS011;10719;48.130;11.630;2023-09-08T05:43:58;13.90;;;5.97;;
21122;SDS011;10719;48.130;11.630;2023-09-08T05:46:24;12.40;;;5.05;;
21122;SDS011;10719;48.130;11.630;2023-09-08T05:48:50;11.38;;;5.35;;
21122;SDS011;10719;48.130;11.630;2023-09-08T05:51:16;23.15;;;8.45;;
21122;SDS011;10719;48.130;11.630;2023-09-08T05:53:42;14.93;;;6.25;;
21122;SDS011;10719;48.130;11.630;2023-09-08T05:56:07;13.63;;;5.95;;
21122;SDS011;10719;48.130;11.630;2023-09-08T05:58:33;13.73;;;5.88;;
21122;SDS011;10719;48.130;11.630;2023-09-08T06:01:02;16.25;;;6.35;;
21122;SDS011;10719;48.130;11.630;2023-09-08T06:03:28;12.10;;;5.78;;
21122;SDS011;10719;48.130;11.630;2023-09-08T06:05:55;15.50;;;5.57;;
21122;SDS011;10719;48.130;11.630;2023-09-08T06:08:23;13.98;;;5.85;;
21122;SDS011;10719;48.130;11.630;2023-09-08T06:10:49;14.65;;;6.28;;
21122;SDS011;10719;48.130;11.630;2023-09-08T06:13:15;12.68;;;5.57;;
21122;SDS011;10719;48.130;11.630;2023-09-08T06:15:40;14.18;;;5.93;;
21122;SDS011;10719;48.130;11.630;2023-09-08T06:18:06;18.67;;;6.30;;
21122;SDS011;10719;48.130;11.630;2023-09-08T06:20:32;14.55;;;6.03;;
21122;SDS011;10719;48.130;11.630;2023-09-08T06:22:57;14.93;;;6.18;;
21122;SDS011;10719;48.130;11.630;2023-09-08T06:25:23;15.15;;;6.38;;
21122;SDS011;10719;48.130;11.630;2023-09-08T06:27:48;14.95;;;6.07;;
21122;SDS011;10719;48.130;11.630;2023-09-08T06:30:14;15.43;;;6.90;;
21122;SDS011;10719;48.130;11.630;2023-09-08T06:32:41;17.65;;;6.95;;
21122;SDS011;10719;48.130;11.630;2023-09-08T06:35:07;14.43;;;6.18;;
21122;SDS011;10719;48.130;11.630;2023-09-08T06:37:36;15.65;;;6.97;;
21122;SDS011;10719;48.130;11.630;2023-09-08T06:40:03;17.23;;;6.82;;
21122;SDS011;10719;48.130;11.630;2023-09-08T06:42:29;14.02;;;6.50;;
21122;SDS011;10719;48.130;11.630;2023-09-08T06:44:55;14.10;;;6.40;;
21122;SDS011;10719;48.130;11.630;2023-09-08T06:47:20;15.68;;;6.65;;
21122;SDS011;10719;48.130;11.630;2023-09-08T06:49:46;13.70;;;6.65;;
21122;SDS011;10719;48.130;11.630;2023-09-08T06:52:12;14.85;;;6.10;;
21122;SDS011;10719;48.130;11.630;2023-09-08T06:54:37;16.25;;;7.57;;
21122;SDS011;10719;48.130;11.630;2023-09-08T06:57:03;14.18;;;6.57;;
21122;SDS011;10719;48.130;11.630;2023-09-08T06:59:29;14.82;;;7.10;;
21122;SDS011;10719;48.130;11.630;2023-09-08T07:01:54;18.52;;;6.75;;
21122;SDS011;10719;48.130;11.630;2023-09-08T07:04:20;14.23;;;7.13;;
21122;SDS011;10719;48.130;11.630;2023-09-08T07:06:45;16.50;;;7.90;;
21122;SDS011;10719;48.130;11.630;2023-09-08T07:09:11;14.80;;;6.85;;
21122;SDS011;10719;48.130;11.630;2023-09-08T07:11:37;14.65;;;6.95;;
21122;SDS011;10719;48.130;11.630;2023-09-08T07:14:03;14.63;;;6.95;;
21122;SDS011;10719;48.130;11.630;2023-09-08T07:16:28;16.38;;;6.70;;
21122;SDS011;10719;48.130;11.630;2023-09-08T07:18:54;16.60;;;7.28;;
21122;SDS011;10719;48.130;11.630;2023-09-08T07:21:19;15.70;;;6.18;;
21122;SDS011;10719;48.130;11.630;2023-09-08T07:23:45;14.85;;;6.57;;
21122;SDS011;10719;48.130;11.630;2023-09-08T07:26:11;14.43;;;6.90;;
21122;SDS011;10719;48.130;11.630;2023-09-08T07:28:37;15.20;;;7.20;;
21122;SDS011;10719;48.130;11.630;2023-09-08T07:31:03;16.13;;;6.78;;
21122;SDS011;10719;48.130;11.630;2023-09-08T07:33:29;16.23;;;6.80;;
21122;SDS011;10719;48.130;11.630;2023-09-08T07:35:55;15.80;;;7.35;;
21122;SDS011;10719;48.130;11.630;2023-09-08T07:38:21;15.45;;;7.30;;
21122;SDS011;10719;48.130;11.630;2023-09-08T07:40:46;17.33;;;7.95;;
21122;SDS011;10719;48.130;11.630;2023-09-08T07:43:12;18.10;;;7.78;;
21122;SDS011;10719;48.130;11.630;2023-09-08T07:45:38;18.95;;;7.85;;
21122;SDS011;10719;48.130;11.630;2023-09-08T07:48:05;16.33;;;7.50;;
21122;SDS011;10719;48.130;11.630;2023-09-08T07:50:31;14.95;;;7.05;;
21122;SDS011;10719;48.130;11.630;2023-09-08T07:52:57;14.90;;;7.00;;
21122;SDS011;10719;48.130;11.630;2023-09-08T07:55:23;16.25;;;7.05;;
21122;SDS011;10719;48.130;11.630;2023-09-08T07:57:52;17.15;;;7.50;;
21122;SDS011;10719;48.130;11.630;2023-09-08T08:00:18;16.92;;;7.05;;
21122;SDS011;10719;48.130;11.630;2023-09-08T08:02:48;15.45;;;6.50;;
21122;SDS011;10719;48.130;11.630;2023-09-08T08:05:15;13.20;;;6.60;;
21122;SDS011;10719;48.130;11.630;2023-09-08T08:07:41;14.07;;;6.95;;
21122;SDS011;10719;48.130;11.630;2023-09-08T08:10:08;14.98;;;7.40;;
21122;SDS011;10719;48.130;11.630;2023-09-08T08:12:34;14.50;;;7.03;;
21122;SDS011;10719;48.130;11.630;2023-09-08T08:15:00;15.27;;;8.13;;
21122;SDS011;10719;48.130;11.630;2023-09-08T08:17:26;15.25;;;7.07;;
21122;SDS011;10719;48.130;11.630;2023-09-08T08:19:53;13.88;;;6.85;;
21122;SDS011;10719;48.130;11.630;2023-09-08T08:22:19;14.60;;;6.97;;
21122;SDS011;10719;48.130;11.630;2023-09-08T08:24:45;14.48;;;6.82;;
21122;SDS011;10719;48.130;11.630;2023-09-08T08:27:11;19.38;;;7.75;;
21122;SDS011;10719;48.130;11.630;2023-09-08T08:29:36;14.75;;;7.28;;
21122;SDS011;10719;48.130;11.630;2023-09-08T08:32:02;15.82;;;7.53;;
21122;SDS011;10719;48.130;11.630;2023-09-08T08:34:28;14.63;;;7.25;;
21122;SDS011;10719;48.130;11.630;2023-09-08T08:36:53;15.70;;;6.95;;
21122;SDS011;10719;48.130;11.630;2023-09-08T08:39:19;13.32;;;6.53;;
21122;SDS011;10719;48.130;11.630;2023-09-08T08:41:45;14.88;;;6.80;;
21122;SDS011;10719;48.130;11.630;2023-09-08T08:44:10;13.65;;;6.68;;
21122;SDS011;10719;48.130;11.630;2023-09-08T08:46:36;13.98;;;6.68;;
21122;SDS011;10719;48.130;11.630;2023-09-08T08:49:03;14.15;;;6.70;;
21122;SDS011;10719;48.130;11.630;2023-09-08T08:51:33;13.68;;;6.88;;
21122;SDS011;10719;48.130;11.630;2023-09-08T08:54:00;12.55;;;6.28;;
21122;SDS011;10719;48.130;11.630;2023-09-08T08:56:29;14.25;;;6.07;;
21122;SDS011;10719;48.130;11.630;2023-09-08T08:58:57;13.73;;;6.22;;
21122;SDS011;10719;48.130;11.630;2023-09-08T09:01:23;14.48;;;7.13;;
21122;SDS011;10719;48.130;11.630;2023-09-08T09:03:51;12.82;;;6.15;;
21122;SDS011;10719;48.130;11.630;2023-09-08T09:06:17;13.43;;;6.20;;
21122;SDS011;10719;48.130;11.630;2023-09-08T09:08:43;12.63;;;6.15;;
21122;SDS011;10719;48.130;11.630;2023-09-08T09:11:09;13.25;;;5.97;;
21122;SDS011;10719;48.130;11.630;2023-09-08T09:13:35;14.68;;;6.07;;
21122;SDS011;10719;48.130;11.630;2023-09-08T09:16:01;13.77;;;5.65;;
21122;SDS011;10719;48.130;11.630;2023-09-08T09:18:30;14.05;;;6.35;;
21122;SDS011;10719;48.130;11.630;2023-09-08T09:20:58;13.45;;;5.90;;
21122;SDS011;10719;48.130;11.630;2023-09-08T09:23:28;12.52;;;5.38;;
21122;SDS011;10719;48.130;11.630;2023-09-08T09:25:58;14.23;;;6.18;;
21122;SDS011;10719;48.130;11.630;2023-09-08T09:28:27;14.45;;;5.95;;
21122;SDS011;10719;48.130;11.630;2023-09-08T09:30:53;13.57;;;5.97;;
21122;SDS011;10719;48.130;11.630;2023-09-08T09:33:19;13.18;;;5.82;;
21122;SDS011;10719;48.130;11.630;2023-09-08T09:35:53;12.98;;;5.97;;
21122;SDS011;10719;48.130;11.630;2023-09-08T09:38:19;12.80;;;5.03;;
21122;SDS011;10719;48.130;11.630;2023-09-08T09:40:46;12.48;;;4.90;;
21122;SDS011;10719;48.130;11.630;2023-09-08T09:43:13;12.13;;;5.38;;
21122;SDS011;10719;48.130;11.630;2023-09-08T09:45:41;9.52;;;4.55;;
21122;SDS011;10719;48.130;11.630;2023-09-08T09:48:08;11.30;;;5.50;;
21122;SDS011;10719;48.130;11.630;2023-09-08T09:50:35;10.00;;;4.95;;
21122;SDS011;10719;48.130;11.630;2023-09-08T09:53:13;12.02;;;5.30;;
21122;SDS011;10719;48.130;11.630;2023-09-08T09:55:40;12.73;;;5.05;;
21122;SDS011;10719;48.130;11.630;2023-09-08T09:58:07;14.43;;;5.80;;
21122;SDS011;10719;48.130;11.630;2023-09-08T10:00:34;11.30;;;5.38;;
21122;SDS011;10719;48.130;11.630;2023-09-08T10:03:02;13.95;;;5.05;;
21122;SDS011;10719;48.130;11.630;2023-09-08T10:05:29;11.15;;;5.03;;
21122;SDS011;10719;48.130;11.630;2023-09-08T10:07:55;15.25;;;5.07;;
21122;SDS011;10719;48.130;11.630;2023-09-08T10:10:21;10.65;;;4.90;;
21122;SDS011;10719;48.130;11.630;2023-09-08T10:12:54;10.50;;;5.18;;
21122;SDS011;10719;48.130;11.630;2023-09-08T10:15:22;9.65;;;4.90;;
21122;SDS011;10719;48.130;11.630;2023-09-08T10:17:54;14.52;;;4.95;;
21122;SDS011;10719;48.130;11.630;2023-09-08T10:20:22;10.55;;;4.72;;
21122;SDS011;10719;48.130;11.630;2023-09-08T10:22:50;11.18;;;4.28;;
21122;SDS011;10719;48.130;11.630;2023-09-08T10:25:20;11.07;;;5.10;;
21122;SDS011;10719;48.130;11.630;2023-09-08T10:27:49;11.02;;;4.80;;
21122;SDS011;10719;48.130;11.630;2023-09-08T10:30:15;10.10;;;4.55;;
21122;SDS011;10719;48.130;11.630;2023-09-08T10:32:42;14.68;;;5.25;;
21122;SDS011;10719;48.130;11.630;2023-09-08T10:35:08;13.25;;;5.15;;
21122;SDS011;10719;48.130;11.630;2023-09-08T10:37:35;10.68;;;5.03;;
21122;SDS011;10719;48.130;11.630;2023-09-08T10:42:45;10.75;;;4.78;;
21122;SDS011;10719;48.130;11.630;2023-09-08T10:45:15;10.68;;;5.10;;
21122;SDS011;10719;48.130;11.630;2023-09-08T10:50:17;11.82;;;5.30;;
21122;SDS011;10719;48.130;11.630;2023-09-08T10:52:44;13.80;;;5.32;;
21122;SDS011;10719;48.130;11.630;2023-09-08T10:55:11;14.82;;;5.00;;
21122;SDS011;10719;48.130;11.630;2023-09-08T10:57:44;10.13;;;4.80;;
21122;SDS011;10719;48.130;11.630;2023-09-08T11:00:10;12.52;;;5.32;;
21122;SDS011;10719;48.130;11.630;2023-09-08T11:02:42;14.73;;;5.10;;
21122;SDS011;10719;48.130;11.630;2023-09-08T11:05:15;11.60;;;5.10;;
21122;SDS011;10719;48.130;11.630;2023-09-08T11:07:42;11.32;;;4.95;;
21122;SDS011;10719;48.130;11.630;2023-09-08T11:10:09;12.57;;;5.20;;
21122;SDS011;10719;48.130;11.630;2023-09-08T11:12:35;11.93;;;5.10;;
21122;SDS011;10719;48.130;11.630;2023-09-08T11:15:02;10.55;;;4.75;;
21122;SDS011;10719;48.130;11.630;2023-09-08T11:17:34;12.07;;;4.85;;
21122;SDS011;10719;48.130;11.630;2023-09-08T11:20:01;12.18;;;5.45;;
21122;SDS011;10719;48.130;11.630;2023-09-08T11:22:33;11.40;;;5.05;;
21122;SDS011;10719;48.130;11.630;2023-09-08T11:25:00;12.55;;;5.47;;
21122;SDS011;10719;48.130;11.630;2023-09-08T11:27:29;9.35;;;4.68;;
21122;SDS011;10719;48.130;11.630;2023-09-08T11:29:55;10.60;;;4.53;;
21122;SDS011;10719;48.130;11.630;2023-09-08T11:32:22;13.52;;;5.53;;
21122;SDS011;10719;48.130;11.630;2023-09-08T11:34:48;12.10;;;5.38;;
21122;SDS011;10719;48.130;11.630;2023-09-08T11:37:14;10.70;;;4.85;;
21122;SDS011;10719;48.130;11.630;2023-09-08T11:39:43;12.15;;;5.22;;
21122;SDS011;10719;48.130;11.630;2023-09-08T11:42:11;12.70;;;4.85;;
21122;SDS011;10719;48.130;11.630;2023-09-08T11:44:38;14.13;;;5.95;;
21122;SDS011;10719;48.130;11.630;2023-09-08T11:47:08;15.05;;;6.03;;
21122;SDS011;10719;48.130;11.630;2023-09-08T11:49:37;12.60;;;5.20;;
21122;SDS011;10719;48.130;11.630;2023-09-08T11:52:07;16.27;;;5.72;;
21122;SDS011;10719;48.130;11.630;2023-09-08T11:54:36;10.38;;;5.13;;
21122;SDS011;10719;48.130;11.630;2023-09-08T11:57:05;11.75;;;5.50;;
21122;SDS011;10719;48.130;11.630;2023-09-08T11:59:33;10.73;;;4.80;;
21122;SDS011;10719;48.130;11.630;2023-09-08T12:02:00;10.35;;;4.78;;
21122;SDS011;10719;48.130;11.630;2023-09-08T12:04:26;10.95;;;4.70;;
21122;SDS011;10719;48.130;11.630;2023-09-08T12:06:52;11.15;;;4.90;;
21122;SDS011;10719;48.130;11.630;2023-09-08T12:09:22;10.88;;;4.72;;
21122;SDS011;10719;48.130;11.630;2023-09-08T12:11:48;10.20;;;5.00;;
21122;SDS011;10719;48.130;11.630;2023-09-08T12:14:14;9.48;;;4.75;;
21122;SDS011;10719;48.130;11.630;2023-09-08T12:16:42;10.60;;;5.00;;
21122;SDS011;10719;48.130;11.630;2023-09-08T12:19:10;11.48;;;4.88;;
21122;SDS011;10719;48.130;11.630;2023-09-08T12:21:58;11.30;;;5.05;;
21122;SDS011;10719;48.130;11.630;2023-09-08T12:27:35;10.02;;;4.82;;
21122;SDS011;10719;48.130;11.630;2023-09-08T12:30:01;11.85;;;5.13;;
21122;SDS011;10719;48.130;11.630;2023-09-08T12:32:29;14.00;;;4.57;;
21122;SDS011;10719;48.130;11.630;2023-09-08T12:34:57;10.60;;;4.72;;
21122;SDS011;10719;48.130;11.630;2023-09-08T12:37:25;10.20;;;4.35;;
21122;SDS011;10719;48.130;11.630;2023-09-08T12:39:55;10.82;;;4.88;;
21122;SDS011;10719;48.130;11.630;2023-09-08T12:42:21;10.85;;;5.22;;
21122;SDS011;10719;48.130;11.630;2023-09-08T12:44:51;12.00;;;5.00;;
21122;SDS011;10719;48.130;11.630;2023-09-08T12:47:17;10.52;;;5.03;;
21122;SDS011;10719;48.130;11.630;2023-09-08T12:49:43;11.25;;;4.47;;
21122;SDS011;10719;48.130;11.630;2023-09-08T12:52:09;9.10;;;4.38;;
21122;SDS011;10719;48.130;11.630;2023-09-08T12:54:34;13.07;;;5.53;;
21122;SDS011;10719;48.130;11.630;2023-09-08T12:57:00;11.30;;;4.97;;
21122;SDS011;10719;48.130;11.630;2023-09-08T12:59:26;11.02;;;4.50;;
21122;SDS011;10719;48.130;11.630;2023-09-08T13:01:52;11.68;;;4.95;;
21122;SDS011;10719;48.130;11.630;2023-09-08T13:04:18;10.95;;;4.55;;
21122;SDS011;10719;48.130;11.630;2023-09-08T13:06:44;11.30;;;5.03;;
21122;SDS011;10719;48.130;11.630;2023-09-08T13:09:10;11.00;;;4.35;;
21122;SDS011;10719;48.130;11.630;2023-09-08T13:11:36;10.68;;;4.82;;
21122;SDS011;10719;48.130;11.630;2023-09-08T13:14:02;12.43;;;4.53;;
21122;SDS011;10719;48.130;11.630;2023-09-08T13:16:27;9.70;;;4.55;;
21122;SDS011;10719;48.130;11.630;2023-09-08T13:18:53;9.98;;;4.45;;
21122;SDS011;10719;48.130;11.630;2023-09-08T13:21:18;10.93;;;4.40;;
21122;SDS011;10719;48.130;11.630;2023-09-08T13:23:44;9.45;;;4.05;;
21122;SDS011;10719;48.130;11.630;2023-09-08T13:26:10;8.65;;;3.88;;
21122;SDS011;10719;48.130;11.630;2023-09-08T13:28:35;10.10;;;4.95;;
21122;SDS011;10719;48.130;11.630;2023-09-08T13:31:01;9.07;;;4.03;;
21122;SDS011;10719;48.130;11.630;2023-09-08T13:33:27;9.70;;;4.65;;
21122;SDS011;10719;48.130;11.630;2023-09-08T13:35:53;13.20;;;4.70;;
21122;SDS011;10719;48.130;11.630;2023-09-08T13:38:18;11.07;;;4.25;;
21122;SDS011;10719;48.130;11.630;2023-09-08T13:40:44;8.55;;;4.07;;
21122;SDS011;10719;48.130;11.630;2023-09-08T13:43:10;8.52;;;3.95;;
21122;SDS011;10719;48.130;11.630;2023-09-08T13:45:36;10.02;;;4.30;;
21122;SDS011;10719;48.130;11.630;2023-09-08T13:48:02;8.10;;;4.10;;
21122;SDS011;10719;48.130;11.630;2023-09-08T13:50:29;10.40;;;4.18;;
21122;SDS011;10719;48.130;11.630;2023-09-08T13:52:55;7.20;;;3.47;;
21122;SDS011;10719;48.130;11.630;2023-09-08T13:55:20;9.73;;;4.25;;
21122;SDS011;10719;48.130;11.630;2023-09-08T13:57:48;10.40;;;4.05;;
21122;SDS011;10719;48.130;11.630;2023-09-08T14:00:15;10.80;;;4.53;;
21122;SDS011;10719;48.130;11.630;2023-09-08T14:02:41;8.88;;;3.70;;
21122;SDS011;10719;48.130;11.630;2023-09-08T14:05:07;8.63;;;3.95;;
21122;SDS011;10719;48.130;11.630;2023-09-08T14:07:32;9.77;;;4.30;;
21122;SDS011;10719;48.130;11.630;2023-09-08T14:09:58;8.55;;;3.97;;
21122;SDS011;10719;48.130;11.630;2023-09-08T14:12:24;10.80;;;5.13;;
21122;SDS011;10719;48.130;11.630;2023-09-08T14:14:49;11.15;;;4.32;;
21122;SDS011;10719;48.130;11.630;2023-09-08T14:17:15;9.63;;;4.45;;
21122;SDS011;10719;48.130;11.630;2023-09-08T14:19:40;7.70;;;3.65;;
21122;SDS011;10719;48.130;11.630;2023-09-08T14:22:06;10.13;;;5.05;;
21122;SDS011;10719;48.130;11.630;2023-09-08T14:24:32;11.15;;;4.05;;
21122;SDS011;10719;48.130;11.630;2023-09-08T14:26:58;9.77;;;4.00;;
21122;SDS011;10719;48.130;11.630;2023-09-08T14:29:23;11.48;;;4.72;;
21122;SDS011;10719;48.130;11.630;2023-09-08T14:31:49;8.57;;;3.92;;